Ratings

453 records found.
ID Full Name Model Yacht Name Spinnaker Rating Non-spin. Ratingsort descending Base Rating Non-spin. Adj. Genoa Spin. Adj. Genoa Non-spin. Adj. Mainsail Adj. Spin Area Adj. Wskr Pole Adj. Mast Adj. Prop. Adj. Misc. Adj. Furling Adj. Certificate Expires Status
16064 Gustav Carlson RP 66 Aurora -111 -101 -118 17 0 0 0 7 0 0 0 0 0 4/30/2022 Published
15671 O'Hanley, Ronald Cookson 50 Privateer -76 -59 -75 17 0 0 -1 0 0 0 0 0 0 4/30/2022 Published
16213 Oakcliff Sailing Ker 50 Temptation Oakcliff -42 -57 -39 -18 0 0 0 -3 0 0 0 0 0 4/30/2022 Published
16238 Todd Stuart Swan 82s White Rhino -78 -55 -87 18 0 0 2 -5 0 0 0 9 3 4/30/2022 Published
16081 Madden, James CTM - Carkeek 47 Stark Raving Mad IV -73 -53 -69 18 0 0 -2 -2 0 0 0 0 0 4/30/2022 Published
16041 Fragomen, Austin T. Botin 44 Interlodge IV -64 -44 -60 18 0 0 -2 -2 0 0 0 0 0 4/30/2022 Renewed
16244 Fragomen, Austin T. Botin 44 Interlodge IV -64 -44 -60 18 0 0 -2 -2 0 0 0 0 0 4/30/2022 Published
15533 William Titus CTM-R/P Custom 60 LAURA -59 -41 -60 16 0 0 0 -2 0 0 0 0 3 4/30/2022 Published
15900 Cunha, Brian Kerr 55 IRIE 2 -57 -31 -49 18 0 0 0 -8 0 0 0 0 0 4/30/2022 Published
15901 Cunha, Brian Kerr 55 IRIE 2 -57 -31 -49 18 0 0 0 -8 0 0 0 0 0 4/30/2022 Published
15622 Dudley Johnson Tripp 65 PREVAIL -46 -30 -51 18 0 0 0 2 0 0 0 0 3 4/30/2022 Provisional
16221 Andrew Weiss Ker 40 Christopher Dragon -40 -21 -36 17 0 0 -2 -2 0 0 0 0 0 4/30/2022 Provisional
15963 Lefort, Jack 12 meter Challenge 12 -33 -20 -33 13 0 0 0 0 0 0 0 0 0 4/30/2022 Published
16217 Bruce Chafee CTM R/P 42 Rikki -35 -14 -30 18 0 0 -2 -3 0 0 0 0 0 4/30/2022 Provisional
15467 Stanley Paris FC 53 Kiwi Spirit II -33 -12 -30 18 0 0 0 -3 0 0 0 0 0 4/30/2022 Published
15665 David Saurette J/35 Seraphim 0 0 0 0 0 0 0 0 4/30/2022 Renewed
16193 Frederick Mills Vic Carpenter Van Ki Pass -13 1 -30 23 8 8 0 9 0 0 0 0 0 4/30/2022 Published
15790 Todd Barbera & Heidi Herlihy Swan 56 Tramontana -7 3 -12 15 0 0 0 5 0 0 0 0 0 4/30/2022 Published
15733 Michael Hennessy Class 40 Dragon -9 6 -9 15 0 0 0 0 0 0 0 0 0 4/30/2022 Published
15514 Timothy Kent CLASS 40 OWEN/CLARKE EXPRESS 40 KENT RACING -9 7 -9 16 0 0 0 0 0 0 0 0 0 4/30/2022 Published
15407 Rich, Tom Tripp 43 Settler -10 7 -12 15 3 3 1 -2 0 0 0 0 0 4/30/2022 Published
15853 Swett, Hannah IC-37 Members Only -9 9 -9 18 0 0 0 0 0 0 0 0 0 4/30/2022 Published
16207 John Brim Melges IC37 Rima37 -5 9 -9 18 0 0 0 4 0 0 0 0 0 4/30/2022 Published
16166 Jeremy Wilmot IC37 Yonder -9 9 -9 18 0 0 0 0 0 0 0 0 0 4/30/2022 Published
15365 Peter McClennen IC37 Gamecock -9 9 -9 18 0 0 0 0 0 0 0 0 0 4/30/2022 Published
15718 Lotz, Philip IC-37 Arethusa -9 10 -9 19 0 0 0 0 0 0 0 0 0 4/30/2022 Published
16105 Carl 'Chip" Kah III CLASS 40 PRIVATEER -9 11 -9 20 0 0 0 0 0 0 0 0 0 4/30/2022 Published
15648 Harris, Joseph S. Akilaria Class 40 Gryphon Solo 2 -9 12 -9 21 0 0 0 0 0 0 0 0 0 4/30/2022 Published
15806 Trevor Nelson Farr 40 MH Katahdin -9 12 -3 17 0 0 -2 -4 0 0 0 0 0 4/30/2022 Published
15809 Lincoln Mossop Club Swan 42 The Cat Came Back -3 15 -3 18 0 0 0 0 0 0 0 0 0 4/30/2022 Published
15964 Hamilton, Paul/Young, Patricia Club Swan 42 Entropy -3 15 -3 18 0 0 1 0 0 0 0 -1 0 4/30/2022 Published
16024 Noonan, Peter Swan 56 SD CR Defiance 0 20 -9 20 6 6 0 0 0 0 0 0 3 4/30/2022 Published
15817 Tofias, Donald W-76 Wild Horses 5 22 -9 16 9 12 3 2 0 0 0 0 0 4/30/2022 Published
16227 John Baxter Friendship 75 Luna 14 23 -12 20 9 12 0 14 0 0 0 0 3 4/30/2022 Published
15892 Hodgson, Howard J/160 True 5 25 -9 17 9 12 0 0 0 0 0 5 0 4/30/2022 Published
15949 Ben Chigier Summit 40 Escape Velocity 2 5 26 12 18 0 0 0 -3 0 0 0 -4 0 4/30/2022 Published
16004 Stephen H. Clark CTM-Dave Hubbard Red Herring -3 33 10 23 0 0 0 -13 0 0 0 0 0 4/30/2022 Published
16078 Andrew Kallfelz ARCONA 460 SAFIR 20 36 9 17 4 4 3 1 0 0 0 0 3 4/30/2022 Published
15836 Coleman, Mark C&C Redline MK lll Eclipse 17 37 18 18 0 0 1 -2 0 0 0 0 0 4/30/2022 Published
16090 Leo Vasiliev KER 11.5 Peacemaker 18 38 21 17 0 0 0 -3 0 0 0 0 0 4/30/2022 Provisional
16206 Beau Van Metre Sparkman & Stephens Running Tide 32 40 13 19 3 3 2 11 0 0 0 0 3 4/30/2022 Published
15829 Steven Eddleston CTM Rhodes Sloop (12 Metre) Weatherly 29 41 30 11 0 0 0 -1 0 0 0 0 0 4/30/2022 Published
15857 Levy, Steven J/121 Eagle 23 42 30 19 0 0 0 0 0 0 0 -7 0 4/30/2022 Published
15957 Dennis Gunderson 12 Meter Gleam 33 42 33 9 0 0 0 0 0 0 0 0 0 4/30/2022 Provisional
15741 Frederic Cosandey RM 1370 Choucas 3 27 44 12 20 0 0 0 3 0 0 12 0 0 4/30/2022 Published
15685 Ben steinberg Melges 32 Full Send 31 45 30 14 0 0 0 0 0 0 0 1 0 4/30/2022 Published
15525 Joseph M. Brito Jr. J/121 Incognito 31 48 30 19 0 0 0 2 0 0 0 -1 0 4/30/2022 Published
15550 David Peabody Southwell J/121 Alchemy 31 48 30 19 0 0 0 2 0 0 0 -1 0 4/30/2022 Published
16168 Jonathan Burt J/130 SD Lola 31 48 27 19 2 2 0 2 0 0 0 0 0 4/30/2022 Published
16048 Grimes, Paul 1 Design 35 Modified Wilde Agnes 29 50 36 14 0 0 0 -7 0 0 0 0 0 4/30/2022 Published

Pages